createdAt,value
2022-12-02T00:02:25.558Z,101425.20
2022-12-02T00:04:59.886Z,101428.60
2022-12-02T00:07:31.054Z,101426.00
2022-12-02T00:10:00.657Z,101418.20
2022-12-02T00:12:33.578Z,101418.60
2022-12-02T00:15:36.143Z,101422.60
2022-12-02T00:18:06.262Z,101416.40
2022-12-02T00:20:36.375Z,101417.20
2022-12-02T00:23:06.712Z,101417.60
2022-12-02T00:25:36.986Z,101417.40
2022-12-02T00:28:07.152Z,101414.20
2022-12-02T00:30:37.024Z,101416.20
2022-12-02T00:33:07.190Z,101419.20
2022-12-02T00:35:37.868Z,101414.80
2022-12-02T00:38:08.031Z,101413.40
2022-12-02T00:40:37.785Z,101412.20
2022-12-02T00:43:26.192Z,101416.00
2022-12-02T00:46:13.964Z,101414.40
2022-12-02T00:48:43.707Z,101411.00
2022-12-02T00:51:13.407Z,101404.40
2022-12-02T00:53:42.983Z,101412.80
2022-12-02T00:56:12.876Z,101408.40
2022-12-02T00:58:42.643Z,101403.60
2022-12-02T01:01:12.674Z,101414.00
2022-12-02T01:03:45.888Z,101408.80
2022-12-02T01:06:16.274Z,101411.00
2022-12-02T01:08:46.093Z,101410.80
2022-12-02T01:11:16.177Z,101405.40
2022-12-02T01:13:46.240Z,101407.40
2022-12-02T01:16:17.972Z,101413.20
2022-12-02T01:18:47.812Z,101409.40
2022-12-02T01:21:17.692Z,101403.60
2022-12-02T01:23:47.289Z,101406.40
2022-12-02T01:26:17.050Z,101401.40
2022-12-02T01:28:46.949Z,101407.00
2022-12-02T01:31:16.936Z,101402.80
2022-12-02T01:33:46.758Z,101398.60
2022-12-02T01:36:16.653Z,101396.80
2022-12-02T01:38:46.522Z,101400.80
2022-12-02T01:41:16.521Z,101394.00
2022-12-02T01:43:46.758Z,101391.80
2022-12-02T01:46:16.848Z,101392.40
2022-12-02T01:48:46.824Z,101400.80
2022-12-02T01:51:16.814Z,101396.00
2022-12-02T01:53:49.204Z,101393.20
2022-12-02T01:56:19.034Z,101389.00
2022-12-02T01:58:48.872Z,101388.80
2022-12-02T02:01:28.284Z,101387.80
2022-12-02T02:03:58.721Z,101393.00
2022-12-02T02:06:33.564Z,101394.00
2022-12-02T02:09:06.471Z,101387.00
2022-12-02T02:11:38.084Z,101392.00
2022-12-02T02:14:12.131Z,101395.40
2022-12-02T02:16:42.283Z,101389.60
2022-12-02T02:19:17.844Z,101386.60
2022-12-02T02:21:54.147Z,101387.80
2022-12-02T02:24:25.915Z,101391.00
2022-12-02T02:26:57.253Z,101388.60
2022-12-02T02:29:28.824Z,101387.20
2022-12-02T02:32:00.820Z,101387.20
2022-12-02T02:34:31.815Z,101386.00
2022-12-02T02:37:05.936Z,101390.20
2022-12-02T02:39:37.806Z,101393.40
2022-12-02T02:42:08.403Z,101402.60
2022-12-02T02:44:40.241Z,101389.00
2022-12-02T02:47:11.812Z,101396.40
2022-12-02T02:49:43.556Z,101398.60
2022-12-02T02:52:16.820Z,101404.40
2022-12-02T02:54:48.264Z,101407.80
2022-12-02T02:57:20.869Z,101406.60
2022-12-02T02:59:55.918Z,101406.40
2022-12-02T03:02:28.031Z,101408.20
2022-12-02T03:05:00.253Z,101404.20
2022-12-02T03:07:30.805Z,101404.20
2022-12-02T03:10:03.836Z,101403.60
2022-12-02T03:12:35.925Z,101396.40
2022-12-02T03:15:09.805Z,101391.20
2022-12-02T03:26:40.678Z,101377.20
2022-12-02T03:29:16.986Z,101375.20
2022-12-02T03:31:51.317Z,101381.20
2022-12-02T03:34:26.101Z,101378.20
2022-12-02T03:37:01.409Z,101375.80
2022-12-02T03:39:35.454Z,101369.40
2022-12-02T03:42:09.908Z,101374.80
2022-12-02T03:44:44.133Z,101366.20
2022-12-02T03:47:18.166Z,101363.80
2022-12-02T03:49:52.187Z,101354.20
2022-12-02T03:52:26.490Z,101359.40
2022-12-02T03:55:01.449Z,101353.00
2022-12-02T03:57:40.760Z,101349.40
2022-12-02T04:00:17.541Z,101352.00
2022-12-02T04:02:52.182Z,101350.40
2022-12-02T04:05:26.346Z,101349.40
2022-12-02T04:08:00.669Z,101354.20
2022-12-02T04:10:34.824Z,101346.20
2022-12-02T04:13:08.931Z,101348.20
2022-12-02T04:15:43.216Z,101342.80
2022-12-02T04:18:17.472Z,101341.40
2022-12-02T04:20:51.975Z,101339.60
2022-12-02T04:23:26.211Z,101346.00
2022-12-02T04:26:00.319Z,101341.40
2022-12-02T04:28:34.634Z,101339.40
2022-12-02T04:31:09.096Z,101336.80
2022-12-02T04:33:43.266Z,101340.20
2022-12-02T04:36:17.422Z,101339.00
2022-12-02T04:38:51.422Z,101343.60
2022-12-02T04:41:25.683Z,101344.00
2022-12-02T04:44:00.032Z,101332.40
2022-12-02T04:46:34.364Z,101334.40
2022-12-02T04:49:09.023Z,101337.60
2022-12-02T04:51:42.833Z,101339.80
2022-12-02T04:54:16.403Z,101339.00
2022-12-02T04:56:50.252Z,101330.00
2022-12-02T04:59:24.211Z,101324.80
2022-12-02T05:01:57.894Z,101326.00
2022-12-02T05:04:38.357Z,101327.40
2022-12-02T05:07:13.737Z,101328.40
2022-12-02T05:09:47.510Z,101331.40
2022-12-02T05:12:21.773Z,101330.60
2022-12-02T05:14:56.047Z,101336.40
2022-12-02T05:17:30.900Z,101335.40
2022-12-02T05:20:05.686Z,101333.80
2022-12-02T05:22:40.292Z,101329.80
2022-12-02T05:25:14.746Z,101335.60
2022-12-02T05:27:48.651Z,101335.20
2022-12-02T05:30:22.969Z,101338.00
2022-12-02T05:32:57.079Z,101328.40
2022-12-02T05:35:30.967Z,101332.60
2022-12-02T05:38:05.411Z,101337.20
2022-12-02T05:40:39.423Z,101333.80
2022-12-02T05:43:22.457Z,101334.60
2022-12-02T05:46:00.525Z,101338.80
2022-12-02T05:48:38.041Z,101346.00
2022-12-02T05:51:17.305Z,101344.60
2022-12-02T05:53:53.513Z,101338.80
2022-12-02T05:56:29.937Z,101345.00
2022-12-02T05:59:14.589Z,101342.00
2022-12-02T06:01:52.098Z,101353.80
2022-12-02T06:04:30.223Z,101349.60
2022-12-02T06:07:14.786Z,101354.60
2022-12-02T06:09:48.881Z,101358.40
2022-12-02T06:12:23.725Z,101352.20
2022-12-02T06:14:58.119Z,101354.80
2022-12-02T06:17:32.142Z,101357.80
2022-12-02T06:20:08.805Z,101360.40
2022-12-02T06:22:43.335Z,101358.40
2022-12-02T06:25:29.100Z,101363.20
2022-12-02T06:28:17.556Z,101367.00
2022-12-02T06:30:52.507Z,101363.40
2022-12-02T06:33:33.982Z,101364.40
2022-12-02T06:36:14.924Z,101366.20
2022-12-02T06:38:56.031Z,101365.20
2022-12-02T06:41:32.977Z,101367.00
2022-12-02T06:44:40.584Z,101370.80
2022-12-02T06:48:08.449Z,101372.40
2022-12-02T06:50:47.165Z,101376.80
2022-12-02T06:53:41.799Z,101376.80
2022-12-02T06:56:26.664Z,101379.60
2022-12-02T06:59:05.023Z,101383.40
2022-12-02T07:01:42.906Z,101386.60
2022-12-02T07:04:46.140Z,101388.80
2022-12-02T07:07:24.441Z,101389.00
2022-12-02T07:10:02.592Z,101385.40
2022-12-02T07:12:43.349Z,101392.80
2022-12-02T07:15:30.868Z,101384.00
2022-12-02T07:18:20.976Z,101386.60
2022-12-02T07:20:56.587Z,101388.40
2022-12-02T07:23:32.923Z,101387.40
2022-12-02T07:26:10.158Z,101384.20
2022-12-02T07:28:46.023Z,101391.40
2022-12-02T07:31:26.139Z,101388.40
2022-12-02T07:34:00.107Z,101386.20
2022-12-02T07:36:33.777Z,101391.00
2022-12-02T07:39:08.260Z,101385.60
2022-12-02T07:41:45.462Z,101390.00
2022-12-02T07:44:19.295Z,101378.40
2022-12-02T07:46:53.102Z,101382.80
2022-12-02T07:49:27.362Z,101382.00
2022-12-02T07:52:02.626Z,101381.40
2022-12-02T07:54:36.704Z,101387.80
2022-12-02T07:57:10.596Z,101387.40
2022-12-02T07:59:44.309Z,101386.60
2022-12-02T08:02:18.367Z,101384.40
2022-12-02T08:04:52.298Z,101381.60
2022-12-02T08:07:26.685Z,101379.40
2022-12-02T08:10:00.493Z,101390.60
2022-12-02T08:12:35.030Z,101387.20
2022-12-02T08:15:12.474Z,101386.80
2022-12-02T08:17:47.133Z,101389.80
2022-12-02T08:20:21.913Z,101389.20
2022-12-02T08:22:56.143Z,101385.40
2022-12-02T08:25:30.853Z,101386.60
2022-12-02T08:28:05.418Z,101382.80
2022-12-02T08:30:40.250Z,101389.40
2022-12-02T08:33:15.780Z,101391.40
2022-12-02T08:35:49.517Z,101389.60
2022-12-02T08:38:23.572Z,101394.20
2022-12-02T08:40:57.493Z,101390.00
2022-12-02T08:43:31.580Z,101389.80
2022-12-02T08:46:05.823Z,101386.40
2022-12-02T08:48:39.990Z,101391.40
2022-12-02T08:51:13.905Z,101378.40
2022-12-02T08:53:47.828Z,101389.20
2022-12-02T08:56:22.060Z,101390.00
2022-12-02T08:58:57.346Z,101389.60
2022-12-02T09:01:32.389Z,101384.80
2022-12-02T09:04:06.978Z,101388.20
2022-12-02T09:06:41.828Z,101380.40
2022-12-02T09:09:16.055Z,101383.00
2022-12-02T09:11:53.662Z,101379.40
2022-12-02T09:14:28.117Z,101377.40
2022-12-02T09:17:03.318Z,101381.60
2022-12-02T09:19:37.424Z,101377.20
2022-12-02T09:22:11.389Z,101383.40
2022-12-02T09:24:45.733Z,101375.80
2022-12-02T09:27:19.801Z,101377.80
2022-12-02T09:29:54.353Z,101383.00
2022-12-02T09:32:28.575Z,101382.00
2022-12-02T09:35:02.333Z,101372.20
2022-12-02T09:37:36.665Z,101382.80
2022-12-02T09:40:14.177Z,101382.20
2022-12-02T09:42:48.878Z,101379.80
2022-12-02T09:45:23.013Z,101375.60
2022-12-02T09:47:57.589Z,101378.40
2022-12-02T09:50:31.866Z,101375.20
2022-12-02T09:53:09.078Z,101376.60
2022-12-02T09:55:43.037Z,101378.00
2022-12-02T09:58:21.659Z,101379.00
2022-12-02T10:00:57.692Z,101376.00
2022-12-02T10:03:32.788Z,101376.80
2022-12-02T10:06:15.143Z,101380.20
2022-12-02T10:08:50.176Z,101376.80
2022-12-02T10:11:29.683Z,101368.40
2022-12-02T10:14:07.155Z,101366.40
2022-12-02T10:16:44.397Z,101361.60
2022-12-02T10:19:21.937Z,101362.20
2022-12-02T10:21:56.413Z,101361.80
2022-12-02T10:24:42.438Z,101365.80
2022-12-02T10:27:34.232Z,101356.40
2022-12-02T10:30:27.177Z,101357.80
2022-12-02T10:33:08.554Z,101357.00
2022-12-02T10:35:51.707Z,101356.20
2022-12-02T10:38:42.148Z,101363.00
2022-12-02T10:41:29.044Z,101364.00
2022-12-02T10:44:18.091Z,101360.60
2022-12-02T10:46:52.496Z,101362.60
2022-12-02T10:49:35.943Z,101361.60
2022-12-02T10:52:13.776Z,101361.60
2022-12-02T10:54:52.338Z,101357.80
2022-12-02T10:57:31.014Z,101353.80
2022-12-02T11:00:18.995Z,101359.00
2022-12-02T11:02:56.082Z,101353.40
2022-12-02T11:05:33.997Z,101354.00
2022-12-02T11:08:26.440Z,101357.40
2022-12-02T11:11:17.306Z,101349.80
2022-12-02T11:14:00.736Z,101352.80
2022-12-02T11:17:11.073Z,101346.00
2022-12-02T11:19:51.672Z,101349.40
2022-12-02T11:23:09.246Z,101348.80
2022-12-02T11:26:13.751Z,101347.20
2022-12-02T11:29:18.074Z,101342.40
2022-12-02T11:32:17.420Z,101347.80
2022-12-02T11:37:50.733Z,101347.80
2022-12-02T11:41:01.589Z,101344.00
2022-12-02T11:44:23.963Z,101350.80
2022-12-02T11:47:02.377Z,101342.80
2022-12-02T11:49:43.467Z,101345.20
2022-12-02T11:52:26.429Z,101343.00
2022-12-02T11:55:20.206Z,101345.20
2022-12-02T11:57:58.594Z,101346.20
2022-12-02T12:00:38.993Z,101344.00
2022-12-02T12:03:17.494Z,101339.80
2022-12-02T12:06:13.907Z,101340.40
2022-12-02T12:08:51.289Z,101342.40
2022-12-02T12:11:31.221Z,101340.20
2022-12-02T12:14:23.828Z,101337.60
2022-12-02T12:17:33.929Z,101340.00
2022-12-02T12:20:22.470Z,101336.20
2022-12-02T12:23:17.246Z,101330.80
2022-12-02T12:25:51.232Z,101333.60
2022-12-02T12:28:31.485Z,101331.80
2022-12-02T12:31:08.200Z,101333.60
2022-12-02T12:33:43.163Z,101332.00
2022-12-02T12:36:17.166Z,101333.00
2022-12-02T12:38:53.757Z,101327.80
2022-12-02T12:41:51.723Z,101327.40
2022-12-02T12:44:26.783Z,101331.20
2022-12-02T12:47:07.576Z,101333.00
2022-12-02T12:49:41.496Z,101333.60
2022-12-02T12:52:15.162Z,101332.80
2022-12-02T12:54:51.282Z,101326.20
2022-12-02T12:57:25.223Z,101324.20
2022-12-02T12:59:59.786Z,101328.60
2022-12-02T13:02:33.730Z,101323.60
2022-12-02T13:05:08.939Z,101324.60
2022-12-02T13:07:42.907Z,101326.80
2022-12-02T13:10:19.547Z,101319.60
2022-12-02T13:12:53.551Z,101324.40
2022-12-02T13:15:27.752Z,101332.40
2022-12-02T13:18:01.826Z,101330.00
2022-12-02T13:20:36.162Z,101333.60
2022-12-02T13:23:11.589Z,101337.20
2022-12-02T13:25:45.326Z,101332.60
2022-12-02T13:28:19.680Z,101336.80
2022-12-02T13:30:55.173Z,101336.40
2022-12-02T13:33:29.121Z,101333.60
2022-12-02T13:36:02.850Z,101338.60
2022-12-02T13:38:39.398Z,101333.20
2022-12-02T13:41:13.286Z,101334.00
2022-12-02T13:43:47.246Z,101334.20
2022-12-02T13:46:21.199Z,101335.60
2022-12-02T13:48:55.081Z,101343.60
2022-12-02T13:51:28.831Z,101342.00
2022-12-02T13:54:02.610Z,101339.00
2022-12-02T13:56:36.495Z,101344.80
2022-12-02T13:59:10.332Z,101343.20
2022-12-02T14:01:46.818Z,101339.00
2022-12-02T14:04:20.895Z,101336.80
2022-12-02T14:06:55.300Z,101348.20
2022-12-02T14:09:30.253Z,101347.20
2022-12-02T14:12:04.210Z,101350.00
2022-12-02T14:14:37.968Z,101348.20
2022-12-02T14:17:11.771Z,101353.00
2022-12-02T14:19:45.934Z,101358.40
2022-12-02T14:22:20.048Z,101352.40
2022-12-02T14:24:54.151Z,101359.60
2022-12-02T14:27:29.166Z,101351.40
2022-12-02T14:30:03.460Z,101358.40
2022-12-02T14:32:39.543Z,101351.20
2022-12-02T14:35:15.993Z,101349.80
2022-12-02T14:37:49.944Z,101351.40
2022-12-02T14:40:23.902Z,101352.80
2022-12-02T14:42:57.775Z,101357.60
2022-12-02T14:45:31.659Z,101359.60
2022-12-02T14:48:05.973Z,101363.00
2022-12-02T14:50:40.494Z,101355.00
2022-12-02T14:53:15.066Z,101351.20
2022-12-02T14:55:49.226Z,101358.40
2022-12-02T14:58:23.652Z,101354.40
2022-12-02T15:00:58.138Z,101356.80
2022-12-02T15:03:32.144Z,101358.40
2022-12-02T15:06:08.161Z,101363.00
2022-12-02T15:08:42.250Z,101359.80
2022-12-02T15:11:16.226Z,101365.20
2022-12-02T15:13:50.378Z,101366.40
2022-12-02T15:16:24.719Z,101363.00
2022-12-02T15:18:59.011Z,101368.20
2022-12-02T15:21:34.013Z,101369.00
2022-12-02T15:24:09.608Z,101372.80
2022-12-02T15:26:44.086Z,101374.60
2022-12-02T15:29:18.166Z,101368.00
2022-12-02T15:31:52.270Z,101367.60
2022-12-02T15:34:29.209Z,101366.00
2022-12-02T15:37:03.152Z,101366.20
2022-12-02T15:39:37.283Z,101367.00
2022-12-02T15:42:11.528Z,101364.00
2022-12-02T15:44:45.367Z,101365.20
2022-12-02T15:47:20.080Z,101366.00
2022-12-02T15:49:54.487Z,101369.40
2022-12-02T15:52:28.843Z,101369.80
2022-12-02T15:55:03.746Z,101366.40
2022-12-02T15:57:39.126Z,101368.80
2022-12-02T16:00:15.935Z,101376.80
2022-12-02T16:02:55.896Z,101379.60
2022-12-02T16:05:30.300Z,101381.80
2022-12-02T16:08:04.387Z,101381.00
2022-12-02T16:10:38.702Z,101380.20
2022-12-02T16:13:12.974Z,101379.60
2022-12-02T16:15:47.395Z,101379.00
2022-12-02T16:18:21.714Z,101378.80
2022-12-02T16:20:56.110Z,101376.80
2022-12-02T16:23:30.645Z,101377.40
2022-12-02T16:26:05.266Z,101378.40
2022-12-02T16:28:42.865Z,101380.20
2022-12-02T16:31:17.529Z,101375.20
2022-12-02T16:33:51.683Z,101375.00
2022-12-02T16:36:26.371Z,101376.20
2022-12-02T16:39:00.610Z,101374.40
2022-12-02T16:41:34.725Z,101376.80
2022-12-02T16:44:09.205Z,101372.60
2022-12-02T16:46:43.582Z,101381.20
2022-12-02T16:49:18.294Z,101382.60
2022-12-02T16:51:52.510Z,101381.20
2022-12-02T16:54:27.396Z,101385.00
2022-12-02T16:57:02.699Z,101380.40
2022-12-02T16:59:37.365Z,101386.40
2022-12-02T17:02:12.267Z,101387.60
2022-12-02T17:04:47.629Z,101382.00
2022-12-02T17:07:21.860Z,101389.40
2022-12-02T17:09:56.188Z,101396.20
2022-12-02T17:12:30.083Z,101388.80
2022-12-02T17:15:04.524Z,101390.80
2022-12-02T17:17:47.697Z,101392.00
2022-12-02T17:20:22.177Z,101394.60
2022-12-02T17:22:56.626Z,101392.40
2022-12-02T17:25:30.676Z,101391.60
2022-12-02T17:28:05.071Z,101391.00
2022-12-02T17:30:39.316Z,101394.80
2022-12-02T17:33:13.353Z,101393.80
2022-12-02T17:35:47.345Z,101399.40
2022-12-02T17:38:22.624Z,101400.00
2022-12-02T17:44:01.444Z,101403.00
2022-12-02T17:46:35.381Z,101407.40
2022-12-02T17:49:09.416Z,101410.00
2022-12-02T17:52:00.623Z,101408.20
2022-12-02T17:54:37.710Z,101409.00
2022-12-02T17:57:11.891Z,101407.80
2022-12-02T17:59:46.370Z,101409.60
2022-12-02T18:02:20.460Z,101408.20
2022-12-02T18:04:55.241Z,101410.80
2022-12-02T18:07:30.624Z,101408.80
2022-12-02T18:10:05.546Z,101405.00
2022-12-02T18:12:39.871Z,101405.00
2022-12-02T18:15:26.642Z,101408.60
2022-12-02T18:18:14.833Z,101411.00
2022-12-02T18:20:58.834Z,101410.40
2022-12-02T18:23:49.708Z,101406.20
2022-12-02T18:26:32.565Z,101408.60
2022-12-02T18:29:16.719Z,101408.40
2022-12-02T18:32:03.148Z,101410.80
2022-12-02T18:34:47.153Z,101410.20
2022-12-02T18:37:26.478Z,101416.00
2022-12-02T18:40:06.231Z,101408.60
2022-12-02T18:43:02.345Z,101413.60
2022-12-02T18:45:56.192Z,101413.60
2022-12-02T18:48:46.568Z,101414.00
2022-12-02T18:51:29.262Z,101418.00
2022-12-02T18:54:27.432Z,101411.00
2022-12-02T18:57:12.774Z,101416.40
2022-12-02T18:59:58.373Z,101406.00
2022-12-02T19:02:45.211Z,101413.00
2022-12-02T19:05:26.547Z,101403.00
2022-12-02T19:08:05.505Z,101408.00
2022-12-02T19:10:48.378Z,101410.20
2022-12-02T19:13:29.983Z,101408.40
2022-12-02T19:16:09.753Z,101405.60
2022-12-02T19:18:48.798Z,101407.20
2022-12-02T19:21:29.277Z,101410.80
2022-12-02T19:24:09.424Z,101409.40
2022-12-02T19:26:56.557Z,101407.80
2022-12-02T19:29:42.254Z,101411.20
2022-12-02T19:32:25.510Z,101408.60
2022-12-02T19:35:00.255Z,101405.60
2022-12-02T19:37:41.865Z,101403.40
2022-12-02T19:40:18.363Z,101403.20
2022-12-02T19:42:52.549Z,101407.80
2022-12-02T19:45:26.708Z,101407.80
2022-12-02T19:48:00.776Z,101408.60
2022-12-02T19:50:34.805Z,101408.00
2022-12-02T19:53:09.100Z,101410.20
2022-12-02T19:55:43.291Z,101409.60
2022-12-02T19:58:17.526Z,101412.40
2022-12-02T20:00:51.783Z,101408.00
2022-12-02T20:03:25.848Z,101412.00
2022-12-02T20:06:02.828Z,101415.60
2022-12-02T20:08:37.542Z,101412.20
2022-12-02T20:11:13.585Z,101418.40
2022-12-02T20:13:48.290Z,101417.60
2022-12-02T20:16:22.627Z,101415.20
2022-12-02T20:18:57.231Z,101414.60
2022-12-02T20:21:31.519Z,101412.20
2022-12-02T20:24:05.892Z,101411.40
2022-12-02T20:26:40.289Z,101408.20
2022-12-02T20:29:14.811Z,101410.40
2022-12-02T20:31:49.485Z,101406.20
2022-12-02T20:34:24.352Z,101402.80
2022-12-02T20:36:58.737Z,101400.00
2022-12-02T20:39:33.294Z,101403.00
2022-12-02T20:42:07.750Z,101398.40
2022-12-02T20:44:41.881Z,101397.40
2022-12-02T20:47:16.196Z,101397.40
2022-12-02T20:49:50.711Z,101396.60
2022-12-02T20:52:25.374Z,101393.00
2022-12-02T20:55:00.211Z,101398.40
2022-12-02T20:57:34.600Z,101388.80
2022-12-02T21:00:12.228Z,101386.60
2022-12-02T21:02:46.527Z,101386.20
2022-12-02T21:05:20.816Z,101383.80
2022-12-02T21:07:55.100Z,101386.60
2022-12-02T21:10:31.299Z,101383.80
2022-12-02T21:13:05.937Z,101378.80
2022-12-02T21:15:41.360Z,101384.00
2022-12-02T21:18:15.387Z,101376.80
2022-12-02T21:20:49.421Z,101382.40
2022-12-02T21:23:23.725Z,101381.40
2022-12-02T21:25:57.930Z,101382.00
2022-12-02T21:28:31.809Z,101394.20
2022-12-02T21:31:06.085Z,101393.00
2022-12-02T21:33:40.213Z,101390.00
2022-12-02T21:36:14.571Z,101393.40
2022-12-02T21:38:48.582Z,101388.60
2022-12-02T21:41:22.522Z,101389.60
2022-12-02T21:43:56.737Z,101390.40
2022-12-02T21:46:31.727Z,101394.60
2022-12-02T21:49:06.070Z,101396.80
2022-12-02T21:51:40.065Z,101396.80
2022-12-02T21:54:14.154Z,101385.80
2022-12-02T21:56:48.976Z,101385.80
2022-12-02T21:59:23.054Z,101390.80
2022-12-02T22:01:57.349Z,101390.00
2022-12-02T22:04:31.623Z,101385.60
2022-12-02T22:07:22.995Z,101385.00
2022-12-02T22:09:57.075Z,101380.60
2022-12-02T22:12:31.250Z,101387.00
2022-12-02T22:15:05.914Z,101388.00
2022-12-02T22:17:40.725Z,101380.20
2022-12-02T22:20:18.544Z,101375.20
2022-12-02T22:22:52.359Z,101380.20
2022-12-02T22:25:27.396Z,101383.00
2022-12-02T22:28:01.714Z,101380.80
2022-12-02T22:30:36.017Z,101384.00
2022-12-02T22:33:10.277Z,101382.20
2022-12-02T22:35:44.128Z,101376.60
2022-12-02T22:38:18.629Z,101376.40
2022-12-02T22:40:52.902Z,101375.60
2022-12-02T22:43:27.130Z,101379.00
2022-12-02T22:46:01.256Z,101379.00
2022-12-02T22:48:35.958Z,101376.00
2022-12-02T22:51:10.384Z,101374.80
2022-12-02T22:53:44.403Z,101372.40
2022-12-02T22:56:18.575Z,101375.20
2022-12-02T22:58:52.505Z,101372.80
2022-12-02T23:01:27.018Z,101372.60
2022-12-02T23:04:01.265Z,101372.60
2022-12-02T23:06:35.292Z,101371.00
2022-12-02T23:09:09.272Z,101367.60
2022-12-02T23:11:43.362Z,101362.00
2022-12-02T23:14:19.228Z,101363.40
2022-12-02T23:16:53.481Z,101368.20
2022-12-02T23:19:27.714Z,101370.40
2022-12-02T23:22:02.214Z,101365.60
2022-12-02T23:24:36.123Z,101369.40
2022-12-02T23:27:11.076Z,101368.40
2022-12-02T23:29:44.902Z,101371.40
2022-12-02T23:32:21.690Z,101370.20
2022-12-02T23:34:55.645Z,101377.20
2022-12-02T23:37:30.378Z,101377.00
2022-12-02T23:40:04.465Z,101382.80
2022-12-02T23:42:38.623Z,101384.20
2022-12-02T23:45:14.217Z,101384.00
2022-12-02T23:47:51.841Z,101384.00
2022-12-02T23:50:26.237Z,101382.40
2022-12-02T23:53:00.448Z,101376.40
2022-12-02T23:55:34.297Z,101379.80
2022-12-02T23:58:08.425Z,101377.80
